Time;durP1;ratioP1;P1;durP2;ratioP2;P2;SDS_P1;SDS_P2;PMS_P1;PMS_P2;Temp;Humidity;BMP_temperature;BMP_pressure;BME280_temperature;BME280_humidity;BME280_pressure;Samples;Min_cycle;Max_cycle;Signal;HPM_P1;HPM_P2
2022/12/01 00:01:41;;;;;;;;;;;3.40;99.90;;;2.48;100.00;97757.22;5026906;28;19927;-59
2022/12/01 00:04:06;;;;;;;;;;;3.40;99.90;;;2.51;100.00;97758.94;5025977;28;20356;-59
2022/12/01 00:06:32;;;;;;;;;;;3.40;99.90;;;2.50;100.00;97760.69;5027748;28;19920;-60
2022/12/01 00:11:43;;;;;;;;;;;3.40;99.90;;;2.50;100.00;97762.44;5026823;28;19990;-59
2022/12/01 00:14:09;;;;;;;;;;;3.40;99.90;;;2.51;100.00;97765.00;5010001;28;19939;-60
2022/12/01 00:16:34;;;;;;;;;;;3.40;99.90;;;2.46;100.00;97759.81;5031476;28;20353;-59
2022/12/01 00:19:00;;;;;;;;;;;3.40;99.90;;;2.50;100.00;97758.06;5025071;28;19964;-59
2022/12/01 00:21:26;;;;;;;;;;;3.40;99.90;;;2.43;100.00;97752.00;5025822;28;20268;-59
2022/12/01 00:23:55;;;;;;;;;;;3.40;99.90;;;2.43;100.00;97752.00;5024904;28;19952;-59
2022/12/01 00:26:21;;;;;;;;;;;3.40;99.90;;;2.43;100.00;97754.59;5029050;28;19916;-59
2022/12/01 00:28:52;;;;;;;;;;;3.40;99.90;;;2.41;100.00;97755.47;5031380;28;19916;-59
2022/12/01 00:31:18;;;;;;;;;;;3.40;99.90;;;2.44;100.00;97755.44;5030817;28;20196;-59
2022/12/01 00:33:43;;;;;;;;;;;3.30;99.90;;;2.40;100.00;97759.78;5030550;28;19921;-59
2022/12/01 00:36:09;;;;;;;;;;;3.30;99.90;;;2.37;100.00;97756.31;5028319;28;20465;-60
2022/12/01 00:38:35;;;;;;;;;;;3.30;99.90;;;2.34;100.00;97758.94;5031477;28;20380;-59
2022/12/01 00:41:01;;;;;;;;;;;3.30;99.90;;;2.46;100.00;97762.41;5028669;28;19920;-59
2022/12/01 00:43:26;;;;;;;;;;;3.30;99.90;;;2.36;100.00;97752.00;5032574;28;19913;-59
2022/12/01 00:45:52;;;;;;;;;;;3.30;99.90;;;2.32;100.00;97756.31;5029107;28;19991;-59
2022/12/01 00:48:18;;;;;;;;;;;3.20;99.90;;;2.34;100.00;97757.19;5032213;28;19916;-59
2022/12/01 00:50:44;;;;;;;;;;;3.30;99.90;;;2.36;100.00;97758.06;5033359;28;19920;-59
2022/12/01 00:53:09;;;;;;;;;;;3.30;99.90;;;2.39;100.00;97754.59;5014768;28;19923;-58
2022/12/01 00:55:35;;;;;;;;;;;3.30;99.90;;;2.38;100.00;97748.50;5033980;28;20315;-59
2022/12/01 00:58:00;;;;;;;;;;;3.30;99.90;;;2.44;100.00;97763.25;5030389;28;19960;-59
2022/12/01 01:00:26;;;;;;;;;;;3.40;99.90;;;2.42;100.00;97757.19;5027943;28;19924;-59
2022/12/01 01:02:52;;;;;;;;;;;3.30;99.90;;;2.42;100.00;97759.78;5029446;28;19919;-60
2022/12/01 01:05:17;;;;;;;;;;;3.40;99.90;;;2.40;100.00;97751.97;5029407;28;20396;-59
2022/12/01 01:07:43;;;;;;;;;;;3.40;99.90;;;2.41;100.00;97758.94;5029035;28;19917;-59
2022/12/01 01:10:09;;;;;;;;;;;3.30;99.90;;;2.42;100.00;97765.91;5024741;28;20478;-58
2022/12/01 01:12:35;;;;;;;;;;;3.30;99.90;;;2.45;100.00;97765.00;5031443;28;19975;-59
2022/12/01 01:15:01;;;;;;;;;;;3.30;99.90;;;2.32;100.00;97751.13;5031030;28;20047;-58
2022/12/01 01:17:26;;;;;;;;;;;3.30;99.90;;;2.42;100.00;97755.47;5033823;28;20166;-59
2022/12/01 01:19:52;;;;;;;;;;;3.40;99.90;;;2.39;100.00;97760.66;5030262;28;19912;-59
2022/12/01 01:22:18;;;;;;;;;;;3.30;99.90;;;2.42;100.00;97770.22;5032263;28;20339;-59
2022/12/01 01:24:44;;;;;;;;;;;3.30;99.90;;;2.41;100.00;97771.94;5032466;28;19917;-59
2022/12/01 01:27:09;;;;;;;;;;;3.40;99.90;;;2.42;100.00;97771.09;5034113;28;19984;-59
2022/12/01 01:29:35;;;;;;;;;;;3.30;99.90;;;2.42;100.00;97778.91;5031296;28;19913;-59
2022/12/01 01:32:00;;;;;;;;;;;3.30;99.90;;;2.43;100.00;97772.81;5027316;28;20487;-59
2022/12/01 01:34:26;;;;;;;;;;;3.30;99.90;;;2.42;100.00;97772.81;5030283;28;19947;-59
2022/12/01 01:36:52;;;;;;;;;;;3.30;99.90;;;2.36;100.00;97771.06;5026019;28;20184;-59
2022/12/01 01:39:17;;;;;;;;;;;3.30;99.90;;;2.37;100.00;97767.63;5029455;28;20098;-59
2022/12/01 01:41:43;;;;;;;;;;;3.30;99.90;;;2.35;100.00;97778.88;5028392;28;20354;-59
2022/12/01 01:44:46;;;;;;;;;;;3.30;99.90;;;2.33;100.00;97775.41;5018706;28;20129;-59
2022/12/01 01:47:12;;;;;;;;;;;3.30;99.90;;;2.32;100.00;97766.72;5021364;28;19916;-59
2022/12/01 01:49:38;;;;;;;;;;;3.30;99.90;;;2.30;100.00;97776.28;5007616;28;19955;-59
2022/12/01 01:52:04;;;;;;;;;;;3.20;99.90;;;2.31;100.00;97783.19;5008428;28;19947;-59
2022/12/01 01:54:39;;;;;;;;;;;3.20;99.90;;;2.35;100.00;97778.88;5031529;28;20305;-60
2022/12/01 01:57:06;;;;;;;;;;;3.30;99.90;;;2.32;100.00;97779.75;5030829;28;20007;-60
2022/12/01 01:59:38;;;;;;;;;;;3.20;99.90;;;2.29;100.00;97777.13;5011640;28;19916;-60
2022/12/01 02:02:07;;;;;;;;;;;3.20;99.90;;;2.29;100.00;97775.38;5017674;28;19921;-61
2022/12/01 02:04:35;;;;;;;;;;;3.20;99.90;;;2.29;100.00;97777.13;5027109;28;19921;-60
2022/12/01 02:07:00;;;;;;;;;;;3.20;99.90;;;2.29;100.00;97775.38;5025963;28;20387;-60
2022/12/01 02:09:26;;;;;;;;;;;3.20;99.90;;;2.27;100.00;97774.53;5027694;28;19920;-60
2022/12/01 02:12:04;;;;;;;;;;;3.20;99.90;;;2.28;100.00;97770.22;5029710;28;19983;-60
2022/12/01 02:15:16;;;;;;;;;;;3.20;99.90;;;2.30;100.00;97760.66;5025289;28;19920;-60
2022/12/01 02:18:12;;;;;;;;;;;3.20;99.90;;;2.29;100.00;97761.50;4930966;28;20873;-60
2022/12/01 02:20:54;;;;;;;;;;;3.20;99.90;;;2.21;100.00;97764.09;4942095;28;19922;-60
2022/12/01 02:23:38;;;;;;;;;;;3.20;99.90;;;2.25;100.00;97768.44;5014318;28;20391;-60
2022/12/01 02:26:42;;;;;;;;;;;3.20;99.90;;;2.23;100.00;97764.13;5028206;28;19995;-60
2022/12/01 02:29:21;;;;;;;;;;;3.20;99.90;;;2.21;100.00;97764.09;5012469;28;19917;-60
2022/12/01 02:32:09;;;;;;;;;;;3.10;99.90;;;2.19;100.00;97757.16;5007722;28;19930;-60
2022/12/01 02:34:48;;;;;;;;;;;3.10;99.90;;;2.20;100.00;97757.16;5008012;28;19921;-60
2022/12/01 02:37:23;;;;;;;;;;;3.10;99.90;;;2.08;100.00;97734.59;5006744;28;20045;-57
2022/12/01 02:39:57;;;;;;;;;;;3.20;99.90;;;2.20;100.00;97764.97;5027218;28;20303;-58
2022/12/01 02:42:58;;;;;;;;;;;3.10;99.90;;;2.21;100.00;97763.25;5004068;28;19916;-58
2022/12/01 02:45:32;;;;;;;;;;;3.10;99.90;;;2.19;100.00;97760.66;5029474;28;19924;-63
2022/12/01 02:48:00;;;;;;;;;;;3.10;99.90;;;2.17;100.00;97759.78;5021657;28;19924;-59
2022/12/01 02:50:28;;;;;;;;;;;3.10;99.90;;;2.19;100.00;97762.34;5010233;28;19921;-58
2022/12/01 02:52:54;;;;;;;;;;;3.10;99.90;;;2.21;100.00;97751.09;5012061;28;19920;-58
2022/12/01 02:55:20;;;;;;;;;;;3.10;99.90;;;2.18;100.00;97755.44;5011415;28;20202;-58
2022/12/01 02:57:45;;;;;;;;;;;3.10;99.90;;;2.17;100.00;97764.09;5031024;28;20501;-58
2022/12/01 03:00:12;;;;;;;;;;;3.10;99.90;;;2.13;100.00;97757.16;5031023;28;19928;-59
2022/12/01 03:02:51;;;;;;;;;;;3.10;99.90;;;2.10;100.00;97761.50;5029410;28;19917;-58
2022/12/01 03:05:23;;;;;;;;;;;3.10;99.90;;;2.13;100.00;97764.97;5014342;28;20424;-58
2022/12/01 03:08:13;;;;;;;;;;;3.00;99.90;;;2.09;100.00;97759.75;5030056;28;19913;-59
2022/12/01 03:10:57;;;;;;;;;;;3.10;99.90;;;2.06;100.00;97758.84;5031198;28;20448;-59
2022/12/01 03:16:51;;;;;;;;;;;3.00;99.90;;;2.07;100.00;97755.41;5021477;28;19998;-59
2022/12/01 03:19:26;;;;;;;;;;;3.00;99.90;;;2.03;100.00;97744.13;5026318;28;19916;-59
2022/12/01 03:22:11;;;;;;;;;;;3.00;99.90;;;2.04;100.00;97751.03;5026579;28;19917;-59
2022/12/01 03:24:40;;;;;;;;;;;3.00;99.90;;;2.02;100.00;97744.13;5005132;28;19913;-58
2022/12/01 03:27:06;;;;;;;;;;;3.00;99.90;;;2.04;100.00;97752.78;5027473;28;20000;-59
2022/12/01 03:29:52;;;;;;;;;;;3.00;99.90;;;2.00;100.00;97749.31;5015374;28;19920;-59
2022/12/01 03:32:26;;;;;;;;;;;2.90;99.90;;;1.98;100.00;97748.44;5034372;28;20372;-59
2022/12/01 03:34:57;;;;;;;;;;;2.90;99.90;;;1.99;100.00;97750.19;5029923;28;19913;-58
2022/12/01 03:37:26;;;;;;;;;;;3.00;99.90;;;1.99;100.00;97744.09;5032579;28;19960;-58
2022/12/01 03:39:55;;;;;;;;;;;2.90;99.90;;;2.03;100.00;97759.72;5031332;28;19912;-58
2022/12/01 03:42:37;;;;;;;;;;;3.00;99.90;;;2.01;100.00;97752.78;5011116;28;19921;-58
2022/12/01 03:45:10;;;;;;;;;;;2.90;99.90;;;1.99;100.00;97747.59;5009460;28;19921;-58
2022/12/01 03:47:38;;;;;;;;;;;2.90;99.90;;;2.01;100.00;97745.84;5029331;28;19909;-58
2022/12/01 03:50:05;;;;;;;;;;;2.90;99.90;;;1.95;100.00;97758.81;5032793;28;19924;-58
2022/12/01 03:52:43;;;;;;;;;;;2.90;99.90;;;1.94;100.00;97749.31;5030511;28;19920;-59
2022/12/01 03:55:19;;;;;;;;;;;2.90;99.90;;;1.84;100.00;97734.53;5031929;28;19921;-59
2022/12/01 03:58:03;;;;;;;;;;;2.90;99.90;;;1.94;100.00;97754.50;5035458;28;19921;-58
2022/12/01 04:00:30;;;;;;;;;;;2.90;99.90;;;1.93;100.00;97752.75;5022485;28;19916;-59
2022/12/01 04:02:56;;;;;;;;;;;2.90;99.90;;;1.93;100.00;97754.50;5011818;28;19942;-58
2022/12/01 04:05:22;;;;;;;;;;;2.90;99.90;;;1.90;100.00;97753.63;5025467;28;19917;-58
2022/12/01 04:07:48;;;;;;;;;;;2.90;99.90;;;1.85;100.00;97754.50;5032484;28;19923;-58
2022/12/01 04:10:14;;;;;;;;;;;2.80;99.90;;;1.86;100.00;97753.59;5029979;28;19936;-59
2022/12/01 04:12:39;;;;;;;;;;;2.80;99.90;;;1.83;100.00;97759.69;5032236;28;20384;-58
2022/12/01 04:17:37;;;;;;;;;;;2.80;99.90;;;1.77;100.00;97756.19;5049818;28;19986;-41
2022/12/01 04:20:05;;;;;;;;;;;2.80;99.90;;;1.74;100.00;97756.16;5051181;28;20000;-42
2022/12/01 04:22:33;;;;;;;;;;;2.70;99.90;;;1.76;100.00;97757.03;5048791;28;19920;-42
2022/12/01 04:24:59;;;;;;;;;;;2.70;99.90;;;1.75;100.00;97750.97;5054684;28;20265;-42
2022/12/01 04:27:25;;;;;;;;;;;2.70;99.90;;;1.71;100.00;97751.81;5056090;28;20204;-42
2022/12/01 04:29:50;;;;;;;;;;;2.70;99.90;;;1.74;100.00;97750.97;5060331;28;19919;-42
2022/12/01 04:32:16;;;;;;;;;;;2.70;99.90;;;1.76;100.00;97757.03;5049978;28;20153;-42
2022/12/01 04:34:42;;;;;;;;;;;2.70;99.90;;;1.71;100.00;97760.50;5045479;28;21367;-42
2022/12/01 04:37:08;;;;;;;;;;;2.70;99.90;;;1.69;100.00;97745.75;5048498;28;19925;-41
2022/12/01 04:39:34;;;;;;;;;;;2.70;99.90;;;1.74;100.00;97770.00;5048835;28;20653;-41
2022/12/01 04:42:00;;;;;;;;;;;2.70;99.90;;;1.75;100.00;97753.56;5052721;28;20681;-41
2022/12/01 04:44:26;;;;;;;;;;;2.70;99.90;;;1.78;100.00;97750.13;5047148;28;19922;-41
2022/12/01 04:46:52;;;;;;;;;;;2.70;99.90;;;1.80;100.00;97761.41;5045488;28;20553;-42
2022/12/01 04:49:18;;;;;;;;;;;2.80;99.90;;;1.83;100.00;97769.19;5045255;28;19921;-42
2022/12/01 04:51:44;;;;;;;;;;;2.80;99.90;;;1.78;100.00;97757.94;5045849;28;19957;-42
2022/12/01 04:54:10;;;;;;;;;;;2.80;99.90;;;1.83;100.00;97758.78;5045051;28;19920;-41
2022/12/01 04:56:35;;;;;;;;;;;2.80;99.90;;;1.87;100.00;97757.94;5050524;28;19970;-42
2022/12/01 04:59:01;;;;;;;;;;;2.80;99.90;;;1.87;100.00;97766.63;5048131;28;20145;-42
2022/12/01 05:01:27;;;;;;;;;;;2.80;99.90;;;1.86;100.00;97762.25;5038956;28;19920;-42
2022/12/01 05:03:52;;;;;;;;;;;2.80;99.90;;;1.88;100.00;97755.38;5034800;28;19923;-41
2022/12/01 05:06:27;;;;;;;;;;;2.80;99.90;;;1.68;100.00;97724.06;5036598;28;19920;-42
2022/12/01 05:08:58;;;;;;;;;;;2.80;99.90;;;1.94;100.00;97767.53;5043262;28;20335;-42
2022/12/01 05:11:24;;;;;;;;;;;2.90;99.90;;;1.94;100.00;97761.41;5039909;28;20347;-41
2022/12/01 05:13:50;;;;;;;;;;;2.90;99.90;;;1.92;100.00;97764.03;5041561;28;20206;-42
2022/12/01 05:16:21;;;;;;;;;;;2.90;99.90;;;1.88;100.00;97768.38;5028813;28;20524;-42
2022/12/01 05:18:48;;;;;;;;;;;2.90;99.90;;;1.85;100.00;97773.56;5033937;28;20341;-42
2022/12/01 05:21:14;;;;;;;;;;;2.80;99.90;;;1.83;100.00;97763.97;5039798;28;19970;-41
2022/12/01 05:23:39;;;;;;;;;;;2.80;99.90;;;1.83;100.00;97761.38;5043639;28;20023;-41
2022/12/01 05:26:07;;;;;;;;;;;2.80;99.90;;;1.82;100.00;97770.94;5040147;28;19999;-41
2022/12/01 05:28:32;;;;;;;;;;;2.80;99.90;;;1.87;100.00;97765.75;5050118;28;19916;-43
2022/12/01 05:30:58;;;;;;;;;;;2.80;99.90;;;1.87;100.00;97769.22;5042696;28;19927;-41
2022/12/01 05:33:25;;;;;;;;;;;2.80;99.90;;;1.87;100.00;97770.97;5038713;28;19913;-43
2022/12/01 05:35:50;;;;;;;;;;;2.80;99.90;;;1.88;100.00;97770.06;5050139;28;19950;-41
2022/12/01 05:38:17;;;;;;;;;;;2.80;99.90;;;1.93;100.00;97772.72;5046598;28;19920;-41
2022/12/01 05:40:49;;;;;;;;;;;2.90;99.90;;;1.95;100.00;97774.44;5041478;28;19920;-41
2022/12/01 05:43:14;;;;;;;;;;;2.80;99.90;;;1.93;100.00;97776.16;5044933;28;19920;-42
2022/12/01 05:45:40;;;;;;;;;;;2.80;99.90;;;1.95;100.00;97771.84;5041120;28;19986;-42
2022/12/01 05:48:05;;;;;;;;;;;2.90;99.90;;;1.94;100.00;97777.03;5042099;28;19923;-42
2022/12/01 05:50:31;;;;;;;;;;;2.90;99.90;;;2.02;100.00;97778.78;5044031;28;20324;-43
2022/12/01 05:52:57;;;;;;;;;;;2.90;99.90;;;1.91;100.00;97768.34;5044398;28;19920;-42
2022/12/01 05:55:22;;;;;;;;;;;2.90;99.90;;;1.88;100.00;97765.78;5046117;28;19969;-41
2022/12/01 05:57:48;;;;;;;;;;;2.90;99.90;;;1.92;100.00;97774.44;5050641;28;19923;-42
2022/12/01 06:00:14;;;;;;;;;;;2.80;99.90;;;1.89;100.00;97771.84;5045462;28;19917;-42
2022/12/01 06:02:40;;;;;;;;;;;2.80;99.90;;;1.86;100.00;97774.41;5050103;28;19916;-42
2022/12/01 06:05:07;;;;;;;;;;;2.80;99.90;;;1.87;100.00;97776.16;5045535;28;19912;-42
2022/12/01 06:07:34;;;;;;;;;;;2.80;99.90;;;1.87;100.00;97783.97;5048233;28;19943;-43
2022/12/01 06:10:00;;;;;;;;;;;2.80;99.90;;;1.78;100.00;97760.53;5039254;28;20134;-41
2022/12/01 06:12:26;;;;;;;;;;;2.80;99.90;;;1.71;100.00;97765.69;5046948;28;19920;-41
2022/12/01 06:14:52;;;;;;;;;;;2.80;99.90;;;1.85;100.00;97785.69;5034747;28;20395;-41
2022/12/01 06:17:17;;;;;;;;;;;2.80;99.90;;;1.82;100.00;97781.34;5034260;28;19924;-41
2022/12/01 06:19:43;;;;;;;;;;;2.80;99.90;;;1.79;100.00;97777.84;5040522;28;19924;-41
2022/12/01 06:22:09;;;;;;;;;;;2.80;99.90;;;1.79;100.00;97777.84;5036567;28;20394;-41
2022/12/01 06:24:35;;;;;;;;;;;2.80;99.90;;;1.80;100.00;97780.47;5032423;28;19966;-44
2022/12/01 06:27:00;;;;;;;;;;;2.80;99.90;;;1.78;100.00;97776.13;5040698;28;20361;-43
2022/12/01 06:29:27;;;;;;;;;;;2.80;99.90;;;1.82;100.00;97789.13;5052229;28;19942;-42
2022/12/01 06:31:52;;;;;;;;;;;2.80;99.90;;;1.86;100.00;97785.69;5042441;28;20287;-42
2022/12/01 06:34:18;;;;;;;;;;;2.80;99.90;;;1.83;100.00;97767.47;5053071;28;19920;-42
2022/12/01 06:36:43;;;;;;;;;;;2.80;99.90;;;1.89;100.00;97792.63;5026952;28;19916;-43
2022/12/01 06:39:09;;;;;;;;;;;2.80;99.90;;;1.86;100.00;97793.47;5045559;28;20475;-44
2022/12/01 06:41:38;;;;;;;;;;;2.90;99.90;;;1.89;100.00;97797.84;5031691;28;19912;-42
2022/12/01 06:44:04;;;;;;;;;;;2.80;99.90;;;1.90;100.00;97802.16;5046365;28;19921;-42
2022/12/01 06:46:29;;;;;;;;;;;2.80;99.90;;;1.89;100.00;97797.84;5045824;28;19920;-42
2022/12/01 06:48:55;;;;;;;;;;;2.80;99.90;;;1.90;100.00;97791.75;5049268;28;20292;-41
2022/12/01 06:51:21;;;;;;;;;;;2.90;99.90;;;1.91;100.00;97796.09;5044546;28;19924;-41
2022/12/01 06:53:46;;;;;;;;;;;2.80;99.90;;;1.87;100.00;97802.16;5043664;28;19924;-41
2022/12/01 06:56:12;;;;;;;;;;;2.80;99.90;;;1.77;100.00;97797.78;5040881;28;19924;-41
2022/12/01 06:58:37;;;;;;;;;;;2.80;99.90;;;1.77;100.00;97806.44;5045119;28;20028;-41
2022/12/01 07:01:08;;;;;;;;;;;2.80;99.90;;;1.79;100.00;97806.47;5049392;28;19954;-42
2022/12/01 07:03:34;;;;;;;;;;;2.80;99.90;;;1.79;100.00;97801.25;5046376;28;19920;-41
2022/12/01 07:06:00;;;;;;;;;;;2.70;99.90;;;1.80;100.00;97805.63;5046288;28;19928;-42
2022/12/01 07:08:27;;;;;;;;;;;2.70;99.90;;;1.80;100.00;97805.63;5047630;28;20581;-42
2022/12/01 07:11:04;;;;;;;;;;;2.80;99.90;;;1.89;100.00;97808.25;5046119;28;20087;-41
2022/12/01 07:13:30;;;;;;;;;;;2.80;99.90;;;1.86;100.00;97814.28;5045547;28;19947;-41
2022/12/01 07:15:56;;;;;;;;;;;2.80;99.90;;;1.72;100.00;97797.75;5034458;28;19927;-42
2022/12/01 07:18:22;;;;;;;;;;;2.80;99.90;;;1.87;100.00;97817.78;5024049;28;20007;-42
2022/12/01 07:20:47;;;;;;;;;;;2.80;99.90;;;1.85;100.00;97817.75;5026259;28;19918;-42
2022/12/01 07:23:13;;;;;;;;;;;2.80;99.90;;;1.78;100.00;97808.19;5035038;28;19928;-43
2022/12/01 07:25:39;;;;;;;;;;;2.80;99.90;;;1.84;100.00;97816.00;5035409;28;19920;-43
2022/12/01 07:28:04;;;;;;;;;;;2.80;99.90;;;1.88;100.00;97817.78;5043138;28;20003;-41
2022/12/01 07:30:30;;;;;;;;;;;2.80;99.90;;;1.96;100.00;97812.59;5036267;28;19926;-43
2022/12/01 07:32:55;;;;;;;;;;;2.90;99.90;;;1.96;100.00;97820.41;5038469;28;20570;-41
2022/12/01 07:35:21;;;;;;;;;;;2.90;99.90;;;1.96;100.00;97812.59;5034423;28;19940;-43
2022/12/01 07:37:47;;;;;;;;;;;2.90;99.90;;;1.99;100.00;97817.84;5038520;28;19931;-42
2022/12/01 07:40:13;;;;;;;;;;;2.90;99.90;;;1.90;100.00;97820.38;5045463;28;19999;-42
2022/12/01 07:42:42;;;;;;;;;;;2.90;99.90;;;1.89;100.00;97822.09;5048010;28;20015;-41
2022/12/01 07:45:07;;;;;;;;;;;2.90;99.90;;;1.91;100.00;97824.72;5046263;28;21407;-41
2022/12/01 07:47:33;;;;;;;;;;;2.90;99.90;;;1.91;100.00;97824.72;5045059;28;21057;-42
2022/12/01 07:49:59;;;;;;;;;;;2.90;99.90;;;1.93;100.00;97833.41;5045150;28;19981;-41
2022/12/01 07:52:25;;;;;;;;;;;2.90;99.90;;;1.91;100.00;97822.97;5048370;28;20181;-43
2022/12/01 07:54:51;;;;;;;;;;;2.90;99.90;;;1.87;100.00;97815.19;5048906;28;20007;-41
2022/12/01 07:57:18;;;;;;;;;;;2.90;99.90;;;1.96;100.00;97820.41;5046285;28;19916;-42
2022/12/01 07:59:43;;;;;;;;;;;2.90;99.90;;;1.94;100.00;97811.75;5052843;28;19921;-44
2022/12/01 08:02:09;;;;;;;;;;;3.00;99.90;;;2.01;100.00;97821.31;5050374;28;19936;-44
2022/12/01 08:04:35;;;;;;;;;;;3.00;99.90;;;2.11;100.00;97830.00;5049517;28;20430;-42
2022/12/01 08:07:01;;;;;;;;;;;3.00;99.90;;;1.99;100.00;97816.94;5055711;28;19917;-42
2022/12/01 08:09:26;;;;;;;;;;;3.00;99.90;;;2.00;100.00;97823.91;5048647;28;19966;-42
2022/12/01 08:11:52;;;;;;;;;;;3.00;99.90;;;1.96;100.00;97819.56;5053965;28;20003;-44
2022/12/01 08:14:18;;;;;;;;;;;3.00;99.90;;;1.99;100.00;97830.84;5043565;28;20394;-43
2022/12/01 08:16:43;;;;;;;;;;;3.00;99.90;;;1.98;100.00;97831.69;5048313;28;19924;-42
2022/12/01 08:19:09;;;;;;;;;;;3.00;99.90;;;1.86;100.00;97803.03;5058266;28;19912;-43
2022/12/01 08:21:36;;;;;;;;;;;3.00;99.90;;;2.04;100.00;97834.31;5047946;28;20592;-43
2022/12/01 08:24:02;;;;;;;;;;;3.00;99.90;;;1.98;100.00;97836.03;5051137;28;20564;-42
2022/12/01 08:26:28;;;;;;;;;;;3.00;99.90;;;2.06;100.00;97850.81;5054763;28;20366;-41
2022/12/01 08:28:54;;;;;;;;;;;3.00;99.90;;;2.10;100.00;97852.56;5055960;28;19912;-41
2022/12/01 08:31:24;;;;;;;;;;;3.00;99.90;;;2.12;100.00;97854.28;5048565;28;19923;-42
2022/12/01 08:33:50;;;;;;;;;;;3.00;99.90;;;2.15;100.00;97847.34;5046879;28;20043;-41
2022/12/01 08:36:16;;;;;;;;;;;3.10;99.90;;;2.19;100.00;97850.84;5051962;28;20413;-42
2022/12/01 08:38:43;;;;;;;;;;;3.10;99.90;;;2.23;100.00;97856.06;5056041;28;19920;-41
2022/12/01 08:41:10;;;;;;;;;;;3.10;99.90;;;2.27;100.00;97846.53;5054028;28;20383;-42
2022/12/01 08:43:40;;;;;;;;;;;3.20;99.90;;;2.27;100.00;97844.78;5053102;28;20245;-42
2022/12/01 08:46:06;;;;;;;;;;;3.20;99.90;;;2.31;100.00;97855.22;5051347;28;19927;-41
2022/12/01 08:48:32;;;;;;;;;;;3.20;99.90;;;2.28;100.00;97850.88;5053095;28;19912;-42
2022/12/01 08:51:06;;;;;;;;;;;3.20;99.90;;;2.32;100.00;97854.38;5050151;28;20086;-42
2022/12/01 08:53:34;;;;;;;;;;;3.20;99.90;;;2.36;100.00;97850.91;5048313;28;19931;-42
2022/12/01 08:56:05;;;;;;;;;;;3.30;99.90;;;2.37;100.00;97857.81;5052077;28;19921;-41
2022/12/01 08:58:30;;;;;;;;;;;3.30;99.90;;;2.35;100.00;97855.25;5050907;28;20066;-41
2022/12/01 09:01:00;;;;;;;;;;;3.30;99.90;;;2.32;100.00;97849.16;5049820;28;20216;-42
2022/12/01 09:03:26;;;;;;;;;;;3.30;99.90;;;2.31;100.00;97835.25;5038589;28;19920;-41
2022/12/01 09:05:52;;;;;;;;;;;3.30;99.90;;;2.32;100.00;97837.00;5040757;28;20372;-41
2022/12/01 09:08:33;;;;;;;;;;;3.30;99.90;;;2.40;100.00;97844.84;5043328;28;20011;-42
2022/12/01 09:11:04;;;;;;;;;;;3.40;99.90;;;2.41;100.00;97849.19;5043777;28;20002;-42
2022/12/01 09:13:31;;;;;;;;;;;3.40;99.90;;;2.34;100.00;97834.41;5042511;28;19919;-42
2022/12/01 09:16:05;;;;;;;;;;;3.40;99.90;;;2.45;100.00;97846.56;5033656;28;20073;-40
2022/12/01 09:18:30;;;;;;;;;;;3.40;99.90;;;2.48;100.00;97857.00;5040270;28;20450;-40
2022/12/01 09:20:57;;;;;;;;;;;3.40;99.90;;;2.53;100.00;97856.13;5044332;28;19956;-40
2022/12/01 09:23:23;;;;;;;;;;;3.40;99.90;;;2.50;100.00;97845.75;5043801;28;19916;-41
2022/12/01 09:25:49;;;;;;;;;;;3.40;99.90;;;2.47;100.00;97851.78;5043670;28;20519;-42
2022/12/01 09:28:16;;;;;;;;;;;3.40;99.90;;;2.47;100.00;97847.44;5041517;28;20372;-41
2022/12/01 09:30:43;;;;;;;;;;;3.40;99.90;;;2.41;100.00;97838.78;5044764;28;20108;-41
2022/12/01 09:33:08;;;;;;;;;;;3.40;99.90;;;2.36;100.00;97841.34;5043624;28;19913;-41
2022/12/01 09:35:34;;;;;;;;;;;3.40;99.90;;;2.35;100.00;97849.16;5045925;28;20194;-41
2022/12/01 09:38:00;;;;;;;;;;;3.30;99.90;;;2.42;100.00;97857.00;5028278;28;19924;-42
2022/12/01 09:40:31;;;;;;;;;;;3.40;99.90;;;2.40;100.00;97869.13;5037662;28;19994;-43
2022/12/01 09:42:59;;;;;;;;;;;3.40;99.90;;;2.46;100.00;97865.69;5027637;28;19927;-42
2022/12/01 09:45:32;;;;;;;;;;;3.40;99.90;;;2.46;100.00;97855.28;5044117;28;19923;-44
2022/12/01 09:47:59;;;;;;;;;;;3.40;99.90;;;2.54;100.00;97852.69;5033252;28;20383;-43
2022/12/01 09:50:27;;;;;;;;;;;3.40;99.90;;;2.60;100.00;97850.06;5022877;28;19951;-43
2022/12/01 09:53:02;;;;;;;;;;;3.50;99.90;;;2.62;100.00;97857.03;5041853;28;20608;-43
2022/12/01 09:55:30;;;;;;;;;;;3.60;99.90;;;2.69;100.00;97852.69;5033478;28;19916;-44
2022/12/01 09:57:58;;;;;;;;;;;3.60;99.90;;;2.68;100.00;97851.84;5033512;28;19968;-42
2022/12/01 10:00:26;;;;;;;;;;;3.60;99.90;;;2.66;100.00;97853.56;5027104;28;20052;-43
2022/12/01 10:02:54;;;;;;;;;;;3.60;99.90;;;2.70;100.00;97849.25;5024143;28;20489;-43
2022/12/01 10:05:23;;;;;;;;;;;3.60;99.90;;;2.78;100.00;97851.84;5043355;28;20589;-41
2022/12/01 10:07:55;;;;;;;;;;;3.60;99.90;;;2.79;100.00;97846.63;5037052;28;19985;-42
2022/12/01 10:10:27;;;;;;;;;;;3.70;99.90;;;2.83;100.00;97845.75;5036565;28;20462;-41
2022/12/01 10:12:53;;;;;;;;;;;3.70;99.90;;;2.81;100.00;97831.88;5040582;28;19992;-41
2022/12/01 10:18:18;;;;;;;;;;;3.80;99.90;;;2.94;100.00;97837.09;5045025;28;19924;-58
2022/12/01 10:20:53;;;;;;;;;;;3.80;99.90;;;2.93;100.00;97836.25;5041629;28;19923;-58
2022/12/01 10:23:32;;;;;;;;;;;3.80;99.90;;;2.81;100.00;97829.28;5047579;28;20385;-58
2022/12/01 10:26:06;;;;;;;;;;;3.80;99.90;;;2.82;100.00;97824.94;5026299;28;20403;-58
2022/12/01 10:28:47;;;;;;;;;;;3.70;99.90;;;2.84;100.00;97815.41;5035893;28;20183;-58
2022/12/01 10:31:27;;;;;;;;;;;3.70;99.90;;;2.89;100.00;97820.59;5047908;28;19912;-58
2022/12/01 10:34:03;;;;;;;;;;;3.80;99.90;;;2.81;100.00;97799.75;5039790;28;21184;-58
2022/12/01 10:36:31;;;;;;;;;;;3.80;99.90;;;2.88;100.00;97817.13;5023108;28;19924;-58
2022/12/01 10:38:56;;;;;;;;;;;3.80;99.90;;;2.84;100.00;97815.41;5043944;28;20822;-57
2022/12/01 10:41:24;;;;;;;;;;;3.80;99.90;;;2.79;100.00;97812.78;5049826;28;19919;-58
2022/12/01 10:43:51;;;;;;;;;;;3.70;99.90;;;2.87;100.00;97815.38;5032292;28;19955;-57
2022/12/01 10:46:39;;;;;;;;;;;3.80;99.90;;;2.94;100.00;97808.44;5044993;28;19926;-58
2022/12/01 10:49:10;;;;;;;;;;;3.80;99.90;;;2.96;100.00;97811.91;5029755;28;20197;-58
2022/12/01 10:51:53;;;;;;;;;;;3.80;99.90;;;3.01;100.00;97812.78;5048823;28;19987;-58
2022/12/01 10:54:21;;;;;;;;;;;3.90;99.90;;;2.85;100.00;97807.59;5042688;28;19919;-58
2022/12/01 10:56:48;;;;;;;;;;;3.80;99.90;;;2.75;100.00;97805.84;5048509;28;19993;-57
2022/12/01 10:59:30;;;;;;;;;;;3.80;99.90;;;2.74;100.00;97808.44;5051003;28;20497;-57
2022/12/01 11:01:57;;;;;;;;;;;3.70;99.90;;;2.75;100.00;97800.63;5049361;28;19974;-57
2022/12/01 11:04:43;;;;;;;;;;;3.70;99.90;;;2.78;100.00;97805.84;5029383;28;20700;-57
2022/12/01 11:07:15;;;;;;;;;;;3.70;99.90;;;2.79;100.00;97802.34;5031369;28;20356;-57
2022/12/01 11:09:40;;;;;;;;;;;3.70;99.90;;;2.76;100.00;97788.47;5044464;28;19920;-57
2022/12/01 11:12:14;;;;;;;;;;;3.70;99.90;;;2.85;100.00;97791.97;5043375;28;19958;-57
2022/12/01 11:14:44;;;;;;;;;;;3.80;99.90;;;2.98;100.00;97789.31;5042319;28;19950;-57
2022/12/01 11:17:34;;;;;;;;;;;3.80;99.90;;;3.01;100.00;97791.94;5030342;28;19916;-57
2022/12/01 11:20:30;;;;;;;;;;;3.90;99.90;;;3.10;100.00;97793.66;5053621;28;19919;-58
2022/12/01 11:23:17;;;;;;;;;;;3.90;99.90;;;3.15;100.00;97791.94;5049553;28;19923;-57
2022/12/01 11:26:09;;;;;;;;;;;4.00;99.90;;;3.13;100.00;97781.50;5048636;28;19916;-58
2022/12/01 11:28:35;;;;;;;;;;;4.00;99.90;;;3.06;100.00;97782.38;5029222;28;19916;-57
2022/12/01 11:31:06;;;;;;;;;;;4.00;99.90;;;3.05;100.00;97780.63;5048453;28;20008;-51
2022/12/01 11:33:41;;;;;;;;;;;4.00;99.90;;;3.08;100.00;97774.56;5038995;28;20388;-53
2022/12/01 11:36:07;;;;;;;;;;;4.00;99.90;;;3.06;100.00;97770.22;5039356;28;19947;-52
2022/12/01 11:38:33;;;;;;;;;;;4.00;99.90;;;3.10;100.00;97780.63;5026325;28;19990;-52
2022/12/01 11:40:59;;;;;;;;;;;4.00;99.90;;;3.03;100.00;97772.84;5048633;28;20570;-53
2022/12/01 11:43:30;;;;;;;;;;;4.00;99.90;;;3.05;100.00;97781.53;5054111;28;19912;-53
2022/12/01 11:45:58;;;;;;;;;;;3.90;99.90;;;3.00;100.00;97785.00;5049530;28;19928;-53